Time,TemperatureF,DewpointF,PressureIn,WindDirection,WindDirectionDegrees,WindSpeedMPH,WindSpeedGustMPH,Humidity,HourlyPrecipIn,Conditions,Clouds,dailyrainin,SoftwareType,DateUTC
2013-02-05 00:01:00,9.0,1.0,29.84,SSW,207,5.0,7.0,70,0.00,,,0.02,,2013-02-05 06:01:00,
2013-02-05 00:11:00,9.0,1.0,29.84,SSW,207,5.0,7.0,70,0.00,,,0.02,,2013-02-05 06:11:00,
2013-02-05 00:21:00,10.0,3.0,29.82,SSW,194,2.0,7.0,71,0.00,,,0.02,,2013-02-05 06:21:00,
2013-02-05 00:32:00,11.0,3.0,29.81,South,187,5.0,8.0,70,0.00,,,0.02,,2013-02-05 06:32:00,
2013-02-05 00:42:00,11.0,3.0,29.81,South,187,5.0,8.0,70,0.00,,,0.02,,2013-02-05 06:42:00,
2013-02-05 00:52:00,11.0,4.0,29.80,South,181,4.0,9.0,72,0.00,,,0.02,,2013-02-05 06:52:00,
2013-02-05 01:01:00,10.0,4.0,29.78,SE,146,4.0,9.0,77,0.00,,,0.02,,2013-02-05 07:01:00,
2013-02-05 01:11:00,10.0,4.0,29.78,SE,146,4.0,9.0,77,0.00,,,0.02,,2013-02-05 07:11:00,
2013-02-05 01:22:00,10.0,5.0,29.77,SSE,163,3.0,6.0,81,0.00,,,0.02,,2013-02-05 07:22:00,
2013-02-05 01:31:00,10.0,6.0,29.76,South,177,4.0,8.0,83,0.00,,,0.02,,2013-02-05 07:31:00,
2013-02-05 01:41:00,10.0,6.0,29.76,South,177,4.0,8.0,83,0.00,,,0.02,,2013-02-05 07:41:00,
2013-02-05 01:52:00,11.0,7.0,29.75,South,184,5.0,9.0,84,0.00,,,0.02,,2013-02-05 07:52:00,
2013-02-05 02:01:00,11.0,7.0,29.74,South,175,4.0,11.0,85,0.00,,,0.02,,2013-02-05 08:01:00,
2013-02-05 02:11:00,11.0,7.0,29.74,South,175,4.0,11.0,85,0.00,,,0.02,,2013-02-05 08:11:00,
2013-02-05 02:21:00,11.0,8.0,29.74,South,188,5.0,9.0,86,0.00,,,0.02,,2013-02-05 08:21:00,
2013-02-05 02:31:00,11.0,8.0,29.73,South,191,6.0,13.0,86,0.00,,,0.02,,2013-02-05 08:31:00,
2013-02-05 02:41:00,11.0,8.0,29.73,South,191,6.0,13.0,86,0.00,,,0.02,,2013-02-05 08:41:00,
2013-02-05 02:52:00,12.0,9.0,29.72,SSE,167,5.0,10.0,86,0.00,,,0.02,,2013-02-05 08:52:00,
2013-02-05 03:02:00,12.0,9.0,29.72,South,184,5.0,11.0,86,0.00,,,0.02,,2013-02-05 09:02:00,
2013-02-05 03:11:00,12.0,9.0,29.72,South,184,5.0,11.0,86,0.00,,,0.02,,2013-02-05 09:11:00,
2013-02-05 03:21:00,12.0,9.0,29.72,South,184,5.0,11.0,86,0.00,,,0.02,,2013-02-05 09:21:00,
2013-02-05 03:31:00,13.0,10.0,29.70,SSW,195,9.0,13.0,87,0.00,,,0.02,,2013-02-05 09:31:00,
2013-02-05 03:42:00,13.0,10.0,29.70,SSW,195,9.0,13.0,87,0.00,,,0.02,,2013-02-05 09:42:00,
2013-02-05 03:52:00,13.0,10.0,29.70,South,189,9.0,12.0,87,0.00,,,0.02,,2013-02-05 09:52:00,
2013-02-05 04:02:00,14.0,11.0,29.69,SSW,192,7.0,10.0,87,0.00,,,0.02,,2013-02-05 10:02:00,
2013-02-05 04:11:00,14.0,11.0,29.69,SSW,211,6.0,10.0,87,0.00,,,0.02,,2013-02-05 10:11:00,
2013-02-05 04:21:00,14.0,11.0,29.69,SSW,211,6.0,10.0,87,0.00,,,0.02,,2013-02-05 10:21:00,
2013-02-05 04:31:00,14.0,11.0,29.69,SSW,203,5.0,8.0,87,0.00,,,0.02,,2013-02-05 10:31:00,
2013-02-05 04:42:00,14.0,11.0,29.69,SSW,203,5.0,8.0,87,0.00,,,0.02,,2013-02-05 10:42:00,
2013-02-05 04:52:00,14.0,11.0,29.67,SSW,195,6.0,8.0,87,0.00,,,0.02,,2013-02-05 10:52:00,
2013-02-05 05:01:00,14.0,11.0,29.67,SSW,209,5.0,7.0,88,0.00,,,0.02,,2013-02-05 11:01:00,
2013-02-05 05:11:00,14.0,11.0,29.67,SSW,209,5.0,7.0,88,0.00,,,0.02,,2013-02-05 11:11:00,
2013-02-05 05:22:00,15.0,12.0,29.68,SSW,209,5.0,9.0,88,0.00,,,0.02,,2013-02-05 11:22:00,
2013-02-05 05:32:00,15.0,12.0,29.67,SSW,199,5.0,8.0,88,0.00,,,0.02,,2013-02-05 11:32:00,
2013-02-05 05:41:00,15.0,12.0,29.67,SSW,199,5.0,8.0,88,0.00,,,0.02,,2013-02-05 11:41:00,
2013-02-05 05:52:00,15.0,12.0,29.67,SSW,199,5.0,8.0,88,0.00,,,0.02,,2013-02-05 11:52:00,
2013-02-05 06:01:00,16.0,13.0,29.67,SSW,203,3.0,8.0,88,0.00,,,0.02,,2013-02-05 12:01:00,
2013-02-05 06:12:00,16.0,13.0,29.67,SSW,203,3.0,8.0,88,0.00,,,0.02,,2013-02-05 12:12:00,
2013-02-05 06:22:00,17.0,14.0,29.66,SW,221,6.0,11.0,88,0.00,,,0.02,,2013-02-05 12:22:00,
2013-02-05 06:32:00,18.0,15.0,29.65,SSW,213,6.0,13.0,88,0.00,,,0.02,,2013-02-05 12:32:00,
2013-02-05 06:42:00,18.0,15.0,29.65,SSW,213,6.0,13.0,88,0.00,,,0.02,,2013-02-05 12:42:00,
2013-02-05 06:52:00,18.0,15.0,29.65,SW,217,6.0,11.0,89,0.00,,,0.02,,2013-02-05 12:52:00,
2013-02-05 07:01:00,18.0,15.0,29.65,WSW,238,5.0,9.0,89,0.00,,,0.02,,2013-02-05 13:01:00,
2013-02-05 07:12:00,19.0,16.0,29.66,WSW,237,4.0,7.0,89,0.00,,,0.02,,2013-02-05 13:12:00,
2013-02-05 07:21:00,19.0,16.0,29.66,WSW,237,4.0,7.0,89,0.00,,,0.02,,2013-02-05 13:21:00,
2013-02-05 07:31:00,19.0,16.0,29.66,SW,232,4.0,9.0,89,0.00,,,0.02,,2013-02-05 13:31:00,
2013-02-05 07:42:00,19.0,16.0,29.66,SW,232,4.0,9.0,89,0.00,,,0.02,,2013-02-05 13:42:00,
2013-02-05 07:51:00,19.0,16.0,29.66,SW,232,4.0,9.0,89,0.00,,,0.02,,2013-02-05 13:51:00,
2013-02-05 08:01:00,19.0,16.0,29.66,SSW,210,6.0,9.0,89,0.00,,,0.02,,2013-02-05 14:01:00,
2013-02-05 08:12:00,19.0,16.0,29.66,SSW,210,6.0,9.0,89,0.00,,,0.02,,2013-02-05 14:12:00,
2013-02-05 08:21:00,19.0,16.0,29.67,SW,224,5.0,9.0,89,0.00,,,0.02,,2013-02-05 14:21:00,
2013-02-05 08:32:00,20.0,17.0,29.67,WSW,244,3.0,8.0,89,0.00,,,0.02,,2013-02-05 14:32:00,
2013-02-05 08:42:00,20.0,17.0,29.67,WSW,244,3.0,8.0,89,0.00,,,0.02,,2013-02-05 14:42:00,
2013-02-05 08:52:00,20.0,17.0,29.68,SW,227,3.0,6.0,89,0.00,,,0.02,,2013-02-05 14:52:00,
2013-02-05 09:02:00,20.0,17.0,29.68,SW,227,3.0,6.0,89,0.00,,,0.02,,2013-02-05 15:02:00,
2013-02-05 09:11:00,20.0,17.0,29.68,SW,227,3.0,6.0,89,0.00,,,0.02,,2013-02-05 15:11:00,
2013-02-05 09:21:00,21.0,18.0,29.70,SW,228,4.0,8.0,89,0.00,,,0.02,,2013-02-05 15:21:00,
2013-02-05 09:32:00,22.0,20.0,29.70,West,271,4.0,7.0,90,0.00,,,0.02,,2013-02-05 15:32:00,
2013-02-05 09:41:00,22.0,20.0,29.70,West,271,4.0,7.0,90,0.00,,,0.02,,2013-02-05 15:41:00,
2013-02-05 09:52:00,22.0,19.0,29.70,WNW,291,4.0,6.0,89,0.00,,,0.02,,2013-02-05 15:52:00,
2013-02-05 10:01:00,23.0,20.0,29.71,WNW,297,5.0,10.0,89,0.00,,,0.02,,2013-02-05 16:01:00,
2013-02-05 10:11:00,23.0,20.0,29.71,WNW,297,5.0,10.0,89,0.00,,,0.02,,2013-02-05 16:11:00,
2013-02-05 10:22:00,23.0,20.0,29.71,WNW,293,7.0,11.0,89,0.00,,,0.02,,2013-02-05 16:22:00,
2013-02-05 10:32:00,24.0,21.0,29.72,WNW,298,7.0,14.0,89,0.00,,,0.02,,2013-02-05 16:32:00,
2013-02-05 10:42:00,24.0,21.0,29.72,WNW,298,7.0,14.0,89,0.00,,,0.02,,2013-02-05 16:42:00,
2013-02-05 10:51:00,24.0,21.0,29.73,NW,317,4.0,13.0,88,0.00,,,0.02,,2013-02-05 16:51:00,
2013-02-05 11:01:00,24.0,21.0,29.74,NW,317,11.0,14.0,87,0.00,,,0.02,,2013-02-05 17:01:00,
2013-02-05 11:11:00,24.0,21.0,29.74,NW,317,11.0,14.0,87,0.00,,,0.02,,2013-02-05 17:11:00,
2013-02-05 11:21:00,24.0,20.0,29.75,NW,321,10.0,14.0,86,0.00,,,0.02,,2013-02-05 17:21:00,
2013-02-05 11:32:00,24.0,20.0,29.76,NNW,327,9.0,14.0,86,0.00,,,0.02,,2013-02-05 17:32:00,
2013-02-05 11:42:00,24.0,20.0,29.76,NNW,327,9.0,14.0,86,0.00,,,0.02,,2013-02-05 17:42:00,
2013-02-05 11:52:00,24.0,20.0,29.77,NW,313,5.0,15.0,85,0.00,,,0.02,,2013-02-05 17:52:00,
2013-02-05 12:02:00,24.0,20.0,29.78,NNW,335,7.0,13.0,85,0.00,,,0.02,,2013-02-05 18:02:00,
2013-02-05 12:11:00,24.0,20.0,29.78,NNW,335,7.0,13.0,85,0.00,,,0.02,,2013-02-05 18:11:00,
2013-02-05 12:21:00,24.0,20.0,29.78,North,351,8.0,15.0,84,0.00,,,0.02,,2013-02-05 18:21:00,
2013-02-05 12:32:00,24.0,20.0,29.79,North,11,10.0,17.0,83,0.00,,,0.01,,2013-02-05 18:32:00,
2013-02-05 12:42:00,24.0,20.0,29.79,North,11,10.0,17.0,83,0.00,,,0.01,,2013-02-05 18:42:00,
2013-02-05 12:52:00,24.0,19.0,29.80,NW,307,8.0,11.0,82,0.00,,,0.01,,2013-02-05 18:52:00,
2013-02-05 13:02:00,24.0,18.0,29.81,NNW,342,13.0,18.0,79,0.00,,,0.01,,2013-02-05 19:02:00,
2013-02-05 13:11:00,24.0,18.0,29.81,NNW,342,13.0,18.0,79,0.00,,,0.01,,2013-02-05 19:11:00,
2013-02-05 13:21:00,24.0,18.0,29.81,NNW,341,11.0,20.0,77,0.00,,,0.01,,2013-02-05 19:21:00,
2013-02-05 13:32:00,24.0,18.0,29.83,North,351,12.0,18.0,77,0.00,,,0.00,,2013-02-05 19:32:00,
2013-02-05 13:42:00,24.0,18.0,29.83,North,351,12.0,18.0,77,0.00,,,0.00,,2013-02-05 19:42:00,
2013-02-05 13:52:00,24.0,17.0,29.83,NW,311,9.0,15.0,75,0.00,,,0.00,,2013-02-05 19:52:00,
2013-02-05 14:01:00,24.0,17.0,29.83,NW,319,9.0,17.0,74,0.00,,,0.00,,2013-02-05 20:01:00,
2013-02-05 14:11:00,24.0,17.0,29.83,NW,319,9.0,17.0,74,0.00,,,0.00,,2013-02-05 20:11:00,
2013-02-05 14:21:00,24.0,16.0,29.84,North,5,8.0,16.0,72,0.00,,,0.00,,2013-02-05 20:21:00,
2013-02-05 14:32:00,25.0,17.0,29.84,NW,311,10.0,16.0,70,0.00,,,0.00,,2013-02-05 20:32:00,
2013-02-05 14:42:00,25.0,17.0,29.84,NW,311,10.0,16.0,70,0.00,,,0.00,,2013-02-05 20:42:00,
2013-02-05 14:52:00,24.0,15.0,29.85,North,351,10.0,16.0,69,0.00,,,0.00,,2013-02-05 20:52:00,
2013-02-05 15:02:00,24.0,15.0,29.85,North,1,11.0,15.0,68,0.00,,,0.00,,2013-02-05 21:02:00,
2013-02-05 15:11:00,24.0,15.0,29.85,North,1,11.0,15.0,68,0.00,,,0.00,,2013-02-05 21:11:00,
2013-02-05 15:22:00,24.0,14.0,29.86,North,351,8.0,13.0,66,0.00,,,0.00,,2013-02-05 21:22:00,
2013-02-05 15:32:00,24.0,14.0,29.87,NNE,13,9.0,15.0,66,0.00,,,0.00,,2013-02-05 21:32:00,
2013-02-05 15:42:00,24.0,14.0,29.87,NNE,13,9.0,15.0,66,0.00,,,0.00,,2013-02-05 21:42:00,
2013-02-05 15:52:00,24.0,14.0,29.87,NNE,13,9.0,15.0,66,0.00,,,0.00,,2013-02-05 21:52:00,
2013-02-05 16:01:00,23.0,13.0,29.89,NNW,347,9.0,14.0,65,0.00,,,0.00,,2013-02-05 22:01:00,
2013-02-05 16:11:00,23.0,13.0,29.89,NNW,347,9.0,14.0,65,0.00,,,0.00,,2013-02-05 22:11:00,
2013-02-05 16:21:00,23.0,13.0,29.90,NNW,345,8.0,12.0,64,0.00,,,0.00,,2013-02-05 22:21:00,
2013-02-05 16:32:00,23.0,12.0,29.91,North,351,6.0,12.0,63,0.00,,,0.00,,2013-02-05 22:32:00,
2013-02-05 16:42:00,23.0,12.0,29.91,North,351,6.0,12.0,63,0.00,,,0.00,,2013-02-05 22:42:00,
2013-02-05 16:51:00,23.0,13.0,29.91,NNW,339,5.0,9.0,64,0.00,,,0.00,,2013-02-05 22:51:00,
2013-02-05 17:02:00,22.0,12.0,29.92,North,1,5.0,8.0,64,0.00,,,0.00,,2013-02-05 23:02:00,
2013-02-05 17:11:00,22.0,12.0,29.92,North,1,5.0,8.0,64,0.00,,,0.00,,2013-02-05 23:11:00,
2013-02-05 17:21:00,22.0,12.0,29.93,North,1,3.0,6.0,64,0.00,,,0.00,,2013-02-05 23:21:00,
2013-02-05 17:32:00,21.0,11.0,29.93,North,351,4.0,7.0,65,0.00,,,0.00,,2013-02-05 23:32:00,
2013-02-05 17:42:00,21.0,11.0,29.93,North,351,4.0,7.0,65,0.00,,,0.00,,2013-02-05 23:42:00,
2013-02-05 17:52:00,20.0,11.0,29.94,NNW,340,2.0,4.0,67,0.00,,,0.00,,2013-02-05 23:52:00,
2013-02-05 18:02:00,20.0,11.0,29.94,NNW,340,2.0,4.0,67,0.00,,,0.00,,2013-02-06 00:02:00,
2013-02-05 18:11:00,20.0,11.0,29.94,NNW,340,2.0,4.0,67,0.00,,,0.00,,2013-02-06 00:11:00,
2013-02-05 18:21:00,19.0,10.0,29.95,North,5,3.0,5.0,68,0.00,,,0.00,,2013-02-06 00:21:00,
2013-02-05 18:32:00,18.0,9.0,29.96,NW,326,2.0,5.0,68,0.00,,,0.00,,2013-02-06 00:32:00,
2013-02-05 18:42:00,18.0,9.0,29.96,NW,326,2.0,5.0,68,0.00,,,0.00,,2013-02-06 00:42:00,
2013-02-05 18:52:00,17.0,9.0,29.97,NW,326,3.0,4.0,71,0.00,,,0.00,,2013-02-06 00:52:00,
2013-02-05 19:02:00,17.0,10.0,29.97,NNW,333,3.0,5.0,72,0.00,,,0.00,,2013-02-06 01:02:00,
2013-02-05 19:11:00,17.0,10.0,29.97,NNW,333,3.0,5.0,72,0.00,,,0.00,,2013-02-06 01:11:00,
2013-02-05 19:22:00,16.0,9.0,29.98,NNW,344,4.0,5.0,74,0.00,,,0.00,,2013-02-06 01:22:00,
2013-02-05 19:32:00,17.0,10.0,30.00,NNW,340,3.0,5.0,72,0.00,,,0.00,,2013-02-06 01:32:00,
2013-02-05 19:42:00,17.0,10.0,30.00,NNW,340,3.0,5.0,72,0.00,,,0.00,,2013-02-06 01:42:00,
2013-02-05 19:52:00,16.0,9.0,30.00,NNW,327,2.0,4.0,74,0.00,,,0.00,,2013-02-06 01:52:00,
2013-02-05 20:01:00,15.0,9.0,30.00,NW,319,4.0,5.0,76,0.00,,,0.00,,2013-02-06 02:01:00,
2013-02-05 20:11:00,15.0,9.0,30.00,NW,319,4.0,5.0,76,0.00,,,0.00,,2013-02-06 02:11:00,
2013-02-05 20:22:00,15.0,9.0,30.01,WNW,300,4.0,5.0,76,0.00,,,0.00,,2013-02-06 02:22:00,
2013-02-05 20:32:00,13.0,7.0,30.01,WNW,293,4.0,5.0,76,0.00,,,0.00,,2013-02-06 02:32:00,
2013-02-05 20:42:00,13.0,7.0,30.01,WNW,293,4.0,5.0,76,0.00,,,0.00,,2013-02-06 02:42:00,
2013-02-05 20:52:00,14.0,9.0,30.01,WNW,299,2.0,4.0,79,0.00,,,0.00,,2013-02-06 02:52:00,
2013-02-05 21:02:00,12.0,6.0,30.01,WNW,299,2.0,3.0,78,0.00,,,0.00,,2013-02-06 03:02:00,
2013-02-05 21:12:00,12.0,6.0,30.01,WNW,299,2.0,3.0,78,0.00,,,0.00,,2013-02-06 03:12:00,
2013-02-05 21:22:00,11.0,7.0,30.02,WNW,299,2.0,3.0,82,0.00,,,0.00,,2013-02-06 03:22:00,
2013-02-05 21:32:00,11.0,7.0,30.02,WNW,299,1.0,2.0,83,0.00,,,0.00,,2013-02-06 03:32:00,
2013-02-05 21:42:00,11.0,7.0,30.02,WNW,299,1.0,2.0,83,0.00,,,0.00,,2013-02-06 03:42:00,
2013-02-05 21:52:00,11.0,7.0,30.03,WNW,299,2.0,3.0,82,0.00,,,0.00,,2013-02-06 03:52:00,
2013-02-05 22:02:00,10.0,6.0,30.03,WNW,299,2.0,3.0,83,0.00,,,0.00,,2013-02-06 04:02:00,
2013-02-05 22:11:00,10.0,6.0,30.03,WNW,299,2.0,3.0,83,0.00,,,0.00,,2013-02-06 04:11:00,
2013-02-05 22:21:00,9.0,5.0,30.04,WNW,300,3.0,5.0,85,0.00,,,0.00,,2013-02-06 04:21:00,
2013-02-05 22:32:00,9.0,5.0,30.04,WNW,300,3.0,5.0,85,0.00,,,0.00,,2013-02-06 04:32:00,
2013-02-05 22:42:00,9.0,5.0,30.04,WNW,300,3.0,5.0,85,0.00,,,0.00,,2013-02-06 04:42:00,
2013-02-05 22:51:00,10.0,6.0,30.04,NW,305,1.0,2.0,83,0.00,,,0.00,,2013-02-06 04:51:00,
2013-02-05 23:02:00,9.0,5.0,30.05,NW,305,1.0,3.0,85,0.00,,,0.00,,2013-02-06 05:02:00,
2013-02-05 23:12:00,9.0,5.0,30.05,NW,305,1.0,3.0,85,0.00,,,0.00,,2013-02-06 05:12:00,
2013-02-05 23:22:00,9.0,6.0,30.05,WNW,297,3.0,5.0,86,0.00,,,0.00,,2013-02-06 05:22:00,
2013-02-05 23:32:00,7.0,4.0,30.05,WNW,283,5.0,6.0,86,0.00,,,0.00,,2013-02-06 05:32:00,
2013-02-05 23:41:00,7.0,4.0,30.05,WNW,283,5.0,6.0,86,0.00,,,0.00,,2013-02-06 05:41:00,
2013-02-05 23:52:00,6.0,3.0,30.06,WNW,302,5.0,6.0,87,0.00,,,0.00,,2013-02-06 05:52:00,